Terminal Aerodrome Forecast
Issued by NWS

Home | Current Version | Previous Version | Text Only | Print | Product List | Glossary On
Versions: 1 2 3 4 5 6 7 8 9 10 11 12 13 14 15 16 17 18 19 20 21 22 23 24 25 26 27 28 29 30 31
000
FTUS42 KJAX 171300 AAC
TAFCRG
TAF AMD
KCRG 171334Z 1714/1812 31007KT P6SM FEW005 SCT060 BKN120
     FM171500 32007KT P6SM VCSH SCT030 BKN100
     FM171900 02006KT P6SM VCTS SCT035CB
     FM180100 VRB03KT P6SM SCT200=

USA.gov is the U.S. government's official web portal to all federal, state and local government web resources and services.